Time;durP1;ratioP1;P1;durP2;ratioP2;P2;SDS_P1;SDS_P2;PMS_P1;PMS_P2;Temp;Humidity;BMP_temperature;BMP_pressure;BME280_temperature;BME280_humidity;BME280_pressure;Samples;Min_cycle;Max_cycle;Signal;HPM_P1;HPM_P2
2023/08/28 00:01:28;;;;;;;7.13;3.67;;;;;;;;;;5043180;28;20107;-60
2023/08/28 00:03:55;;;;;;;8.23;3.90;;;;;;;;;;5053181;28;20752;-55
2023/08/28 00:06:21;;;;;;;5.22;3.47;;;;;;;;;;5041257;28;20059;-57
2023/08/28 00:08:47;;;;;;;8.52;3.40;;;;;;;;;;5044187;28;20103;-59
2023/08/28 00:11:14;;;;;;;5.15;3.63;;;;;;;;;;5043764;28;20045;-57
2023/08/28 00:13:40;;;;;;;4.47;3.33;;;;;;;;;;5045408;28;20050;-57
2023/08/28 00:16:07;;;;;;;5.82;3.75;;;;;;;;;;5039879;28;20571;-59
2023/08/28 00:18:33;;;;;;;6.78;3.45;;;;;;;;;;5038059;28;20559;-58
2023/08/28 00:21:00;;;;;;;6.13;3.40;;;;;;;;;;5043736;28;20798;-58
2023/08/28 00:23:27;;;;;;;14.23;3.55;;;;;;;;;;5043714;28;20265;-57
2023/08/28 00:25:53;;;;;;;4.80;3.55;;;;;;;;;;5044123;28;20058;-59
2023/08/28 00:28:19;;;;;;;6.85;3.92;;;;;;;;;;5042335;28;20141;-59
2023/08/28 00:30:46;;;;;;;8.15;3.00;;;;;;;;;;5044766;28;20068;-59
2023/08/28 00:33:12;;;;;;;3.55;2.95;;;;;;;;;;5059746;28;20053;-60
2023/08/28 00:35:39;;;;;;;6.03;3.08;;;;;;;;;;5034587;28;20053;-59
2023/08/28 00:38:06;;;;;;;3.25;2.80;;;;;;;;;;5043316;28;20092;-58
2023/08/28 00:40:32;;;;;;;3.60;3.08;;;;;;;;;;5042645;28;20484;-59
2023/08/28 00:42:58;;;;;;;6.07;3.15;;;;;;;;;;5043544;28;20136;-58
2023/08/28 00:45:25;;;;;;;4.47;3.00;;;;;;;;;;5043898;28;20131;-59
2023/08/28 00:47:51;;;;;;;5.07;2.97;;;;;;;;;;5044445;28;20509;-59
2023/08/28 00:50:18;;;;;;;4.07;2.92;;;;;;;;;;5036492;28;20585;-59
2023/08/28 00:52:45;;;;;;;4.97;3.08;;;;;;;;;;5036453;28;20140;-60
2023/08/28 00:55:11;;;;;;;4.43;2.90;;;;;;;;;;5041672;28;20061;-57
2023/08/28 00:57:38;;;;;;;7.43;3.58;;;;;;;;;;5030138;28;20070;-59
2023/08/28 01:00:05;;;;;;;5.63;3.03;;;;;;;;;;5033529;28;20050;-59
2023/08/28 01:02:32;;;;;;;5.75;3.38;;;;;;;;;;5046975;28;20590;-58
2023/08/28 01:04:59;;;;;;;4.70;2.83;;;;;;;;;;5026673;28;20112;-58
2023/08/28 01:07:28;;;;;;;4.28;2.50;;;;;;;;;;5043513;28;20438;-58
2023/08/28 01:09:54;;;;;;;4.40;2.95;;;;;;;;;;5042892;28;20556;-58
2023/08/28 01:12:33;;;;;;;3.72;2.50;;;;;;;;;;5035873;28;20065;-59
2023/08/28 01:15:06;;;;;;;5.90;3.10;;;;;;;;;;5031279;28;20461;-58
2023/08/28 01:17:33;;;;;;;9.85;2.95;;;;;;;;;;5043538;28;20084;-60
2023/08/28 01:20:00;;;;;;;3.78;2.30;;;;;;;;;;5043270;28;20512;-59
2023/08/28 01:22:39;;;;;;;5.65;2.60;;;;;;;;;;5041111;28;20057;-59
2023/08/28 01:25:08;;;;;;;3.70;2.65;;;;;;;;;;5034762;28;20585;-58
2023/08/28 01:27:35;;;;;;;5.97;2.85;;;;;;;;;;5052201;28;20046;-58
2023/08/28 01:30:05;;;;;;;4.65;3.20;;;;;;;;;;5055173;28;20057;-59
2023/08/28 01:32:31;;;;;;;4.40;2.67;;;;;;;;;;5043434;28;20057;-59
2023/08/28 01:35:00;;;;;;;10.30;3.15;;;;;;;;;;5039999;28;20046;-57
2023/08/28 01:37:28;;;;;;;7.45;3.13;;;;;;;;;;5041117;28;20514;-57
2023/08/28 01:39:57;;;;;;;6.13;3.17;;;;;;;;;;5039404;28;20591;-60
2023/08/28 01:42:24;;;;;;;6.50;3.05;;;;;;;;;;5041155;28;20140;-60
2023/08/28 01:44:54;;;;;;;5.90;3.05;;;;;;;;;;5042139;28;20144;-57
2023/08/28 01:47:24;;;;;;;4.45;3.10;;;;;;;;;;5042894;28;20053;-59
2023/08/28 01:49:53;;;;;;;5.78;3.00;;;;;;;;;;5041309;28;20180;-59
2023/08/28 01:52:20;;;;;;;5.30;3.42;;;;;;;;;;5022679;28;20476;-59
2023/08/28 01:54:46;;;;;;;4.97;2.85;;;;;;;;;;5040831;28;20054;-60
2023/08/28 01:57:12;;;;;;;4.30;2.95;;;;;;;;;;5044543;28;20053;-56
2023/08/28 01:59:39;;;;;;;6.13;3.05;;;;;;;;;;5055200;28;20056;-58
2023/08/28 02:02:05;;;;;;;6.07;3.03;;;;;;;;;;5041781;28;20053;-59
2023/08/28 02:04:32;;;;;;;5.40;2.97;;;;;;;;;;5042996;28;20089;-57
2023/08/28 02:06:58;;;;;;;4.90;4.00;;;;;;;;;;5035201;28;20050;-59
2023/08/28 02:09:25;;;;;;;3.83;3.22;;;;;;;;;;5031705;28;20591;-59
2023/08/28 02:11:51;;;;;;;3.95;3.15;;;;;;;;;;5043070;28;20192;-58
2023/08/28 02:14:18;;;;;;;4.90;2.85;;;;;;;;;;5063051;28;20578;-59
2023/08/28 02:16:46;;;;;;;4.95;4.10;;;;;;;;;;5044335;28;20568;-59
2023/08/28 02:19:13;;;;;;;5.10;3.40;;;;;;;;;;5048537;28;20481;-60
2023/08/28 02:21:40;;;;;;;5.60;3.30;;;;;;;;;;5056115;28;20640;-57
2023/08/28 02:24:06;;;;;;;4.32;3.53;;;;;;;;;;5042302;28;20049;-57
2023/08/28 02:26:33;;;;;;;7.70;3.78;;;;;;;;;;5043393;28;20054;-60
2023/08/28 02:28:59;;;;;;;6.00;3.10;;;;;;;;;;5047151;28;20211;-61
2023/08/28 02:31:26;;;;;;;6.45;3.22;;;;;;;;;;5029198;28;20115;-60
2023/08/28 02:33:52;;;;;;;4.50;3.83;;;;;;;;;;5041046;28;20074;-61
2023/08/28 02:36:19;;;;;;;6.65;3.60;;;;;;;;;;5037261;28;20604;-61
2023/08/28 02:38:45;;;;;;;6.40;3.65;;;;;;;;;;5041458;28;20103;-60
2023/08/28 02:41:11;;;;;;;6.82;3.80;;;;;;;;;;5042030;28;20057;-61
2023/08/28 02:43:38;;;;;;;6.32;3.67;;;;;;;;;;5041723;28;20508;-61
2023/08/28 02:46:05;;;;;;;3.80;3.40;;;;;;;;;;5041976;28;20610;-61
2023/08/28 02:48:31;;;;;;;7.30;3.58;;;;;;;;;;5042045;28;20128;-60
2023/08/28 02:50:58;;;;;;;4.28;3.75;;;;;;;;;;5044733;28;20053;-60
2023/08/28 02:53:25;;;;;;;8.57;3.35;;;;;;;;;;5031917;28;20049;-60
2023/08/28 02:56:17;;;;;;;6.25;3.38;;;;;;;;;;5044738;28;20132;-60
2023/08/28 02:58:44;;;;;;;5.80;3.50;;;;;;;;;;5035768;28;20111;-59
2023/08/28 03:01:10;;;;;;;5.80;3.95;;;;;;;;;;5044865;28;20604;-59
2023/08/28 03:03:36;;;;;;;5.82;3.53;;;;;;;;;;5047318;28;20108;-59
2023/08/28 03:06:03;;;;;;;7.72;3.50;;;;;;;;;;5028915;28;20049;-58
2023/08/28 03:08:30;;;;;;;4.20;3.80;;;;;;;;;;5042139;28;20480;-60
2023/08/28 03:10:56;;;;;;;8.15;4.05;;;;;;;;;;5057389;28;20060;-60
2023/08/28 03:13:23;;;;;;;5.18;3.33;;;;;;;;;;5048852;28;20434;-60
2023/08/28 03:15:49;;;;;;;5.20;3.88;;;;;;;;;;5038940;28;20090;-59
2023/08/28 03:18:16;;;;;;;4.45;3.83;;;;;;;;;;5021996;28;20128;-58
2023/08/28 03:20:42;;;;;;;6.68;4.20;;;;;;;;;;5050946;28;20053;-59
2023/08/28 03:23:09;;;;;;;5.97;3.60;;;;;;;;;;5047339;28;20100;-59
2023/08/28 03:25:36;;;;;;;6.15;3.70;;;;;;;;;;5032080;28;20065;-59
2023/08/28 03:28:07;;;;;;;4.03;3.63;;;;;;;;;;5041192;28;20108;-57
2023/08/28 03:30:33;;;;;;;6.82;4.03;;;;;;;;;;5042398;28;20498;-57
2023/08/28 03:33:01;;;;;;;5.28;3.90;;;;;;;;;;5032875;28;20520;-60
2023/08/28 03:35:29;;;;;;;4.75;3.53;;;;;;;;;;5040655;28;20144;-58
2023/08/28 03:37:55;;;;;;;6.65;4.20;;;;;;;;;;5043999;28;20508;-58
2023/08/28 03:40:22;;;;;;;5.43;3.67;;;;;;;;;;5050482;28;20049;-59
2023/08/28 03:42:48;;;;;;;5.35;3.25;;;;;;;;;;5043195;28;20057;-60
2023/08/28 03:45:15;;;;;;;5.15;3.58;;;;;;;;;;5044016;28;20592;-58
2023/08/28 03:47:41;;;;;;;5.20;3.70;;;;;;;;;;5043821;28;20173;-57
2023/08/28 03:50:08;;;;;;;4.85;4.25;;;;;;;;;;5044346;28;20060;-59
2023/08/28 03:52:34;;;;;;;5.90;4.03;;;;;;;;;;5043496;28;20061;-59
2023/08/28 03:55:01;;;;;;;4.88;4.28;;;;;;;;;;5040168;28;20743;-58
2023/08/28 03:57:27;;;;;;;6.35;4.28;;;;;;;;;;5044150;28;20057;-58
2023/08/28 03:59:54;;;;;;;7.57;4.63;;;;;;;;;;5043321;28;20045;-59
2023/08/28 04:02:20;;;;;;;5.10;3.97;;;;;;;;;;5057786;28;20138;-60
2023/08/28 04:04:46;;;;;;;10.93;5.35;;;;;;;;;;5047655;28;20057;-60
2023/08/28 04:07:31;;;;;;;8.02;5.22;;;;;;;;;;5044390;28;20494;-60
2023/08/28 04:09:58;;;;;;;9.07;5.57;;;;;;;;;;5042128;28;20058;-60
2023/08/28 04:12:24;;;;;;;6.05;4.32;;;;;;;;;;5037551;28;20842;-59
2023/08/28 04:14:51;;;;;;;6.20;4.90;;;;;;;;;;5050155;28;20128;-58
2023/08/28 04:17:17;;;;;;;6.97;5.50;;;;;;;;;;5046821;28;20599;-59
2023/08/28 04:19:45;;;;;;;7.35;4.78;;;;;;;;;;5044118;28;20056;-59
2023/08/28 04:22:12;;;;;;;6.13;5.50;;;;;;;;;;5034721;28;20100;-59
2023/08/28 04:24:38;;;;;;;6.88;4.85;;;;;;;;;;5050621;28;20688;-58
2023/08/28 04:27:05;;;;;;;6.97;4.60;;;;;;;;;;5046188;28;20414;-58
2023/08/28 04:29:31;;;;;;;7.32;5.28;;;;;;;;;;5043131;28;20512;-58
2023/08/28 04:31:58;;;;;;;8.13;5.35;;;;;;;;;;5042945;28;20069;-59
2023/08/28 04:34:24;;;;;;;6.35;5.50;;;;;;;;;;5033472;28;20068;-58
2023/08/28 04:36:51;;;;;;;7.03;5.47;;;;;;;;;;5042154;28;20152;-58
2023/08/28 04:39:17;;;;;;;7.50;5.35;;;;;;;;;;5043871;28;20050;-59
2023/08/28 04:41:43;;;;;;;8.90;5.05;;;;;;;;;;5043702;28;20053;-59
2023/08/28 04:44:10;;;;;;;10.55;5.30;;;;;;;;;;5041824;28;20049;-60
2023/08/28 04:46:36;;;;;;;8.57;5.00;;;;;;;;;;5043176;28;20057;-58
2023/08/28 04:49:03;;;;;;;6.95;4.95;;;;;;;;;;5038143;28;20542;-59
2023/08/28 04:51:30;;;;;;;6.28;5.22;;;;;;;;;;5043052;28;20104;-60
2023/08/28 04:53:56;;;;;;;7.35;5.45;;;;;;;;;;5046438;28;20703;-59
2023/08/28 04:56:22;;;;;;;9.63;6.07;;;;;;;;;;5036734;28;20109;-59
2023/08/28 04:58:49;;;;;;;9.73;5.25;;;;;;;;;;5043516;28;20060;-59
2023/08/28 05:01:15;;;;;;;7.38;5.13;;;;;;;;;;5053227;28;20057;-59
2023/08/28 05:03:42;;;;;;;6.13;5.18;;;;;;;;;;5047956;28;20064;-58
2023/08/28 05:06:09;;;;;;;8.82;5.45;;;;;;;;;;5042552;28;20050;-60
2023/08/28 05:08:35;;;;;;;7.38;5.47;;;;;;;;;;5054815;28;20143;-52
2023/08/28 05:11:04;;;;;;;12.07;5.10;;;;;;;;;;5045158;28;20064;-59
2023/08/28 05:13:30;;;;;;;7.10;6.32;;;;;;;;;;5056104;28;20053;-59
2023/08/28 05:15:58;;;;;;;7.00;5.45;;;;;;;;;;5049754;28;20508;-59
2023/08/28 05:18:26;;;;;;;7.22;6.13;;;;;;;;;;5038788;28;20057;-57
2023/08/28 05:20:52;;;;;;;7.13;5.07;;;;;;;;;;5051477;28;20145;-59
2023/08/28 05:23:25;;;;;;;8.02;5.70;;;;;;;;;;5053562;28;20080;-59
2023/08/28 05:25:52;;;;;;;8.80;5.78;;;;;;;;;;5041211;28;20056;-60
2023/08/28 05:28:18;;;;;;;9.13;5.63;;;;;;;;;;5042512;28;20092;-59
2023/08/28 05:30:44;;;;;;;7.82;5.68;;;;;;;;;;5049781;28;20053;-59
2023/08/28 05:33:11;;;;;;;7.68;5.90;;;;;;;;;;5040020;28;20234;-59
2023/08/28 05:35:38;;;;;;;8.77;6.20;;;;;;;;;;5048884;28;20061;-59
2023/08/28 05:38:06;;;;;;;7.95;6.15;;;;;;;;;;5042735;28;20054;-59
2023/08/28 05:40:32;;;;;;;10.70;6.32;;;;;;;;;;5038019;28;20054;-58
2023/08/28 05:42:59;;;;;;;6.78;6.07;;;;;;;;;;5036473;28;20484;-59
2023/08/28 05:45:27;;;;;;;8.13;5.78;;;;;;;;;;5043129;28;20100;-59
2023/08/28 05:47:54;;;;;;;7.53;5.72;;;;;;;;;;5041265;28;20609;-59
2023/08/28 05:50:21;;;;;;;7.30;6.07;;;;;;;;;;5055151;28;20063;-59
2023/08/28 05:52:47;;;;;;;8.52;5.88;;;;;;;;;;5041653;28;20589;-58
2023/08/28 05:55:14;;;;;;;9.98;6.00;;;;;;;;;;5040126;28;20053;-60
2023/08/28 05:57:41;;;;;;;10.15;6.10;;;;;;;;;;5046504;28;20071;-58
2023/08/28 06:00:12;;;;;;;6.22;5.63;;;;;;;;;;5041543;28;20118;-58
2023/08/28 06:02:39;;;;;;;11.02;6.35;;;;;;;;;;5042115;28;20049;-59
2023/08/28 06:05:06;;;;;;;7.43;5.68;;;;;;;;;;5056282;28;20539;-58
2023/08/28 06:07:32;;;;;;;6.82;5.78;;;;;;;;;;5043290;28;20586;-59
2023/08/28 06:09:59;;;;;;;8.60;5.80;;;;;;;;;;5034546;28;20531;-59
2023/08/28 06:12:25;;;;;;;7.22;5.18;;;;;;;;;;5038377;28;20060;-58
2023/08/28 06:14:52;;;;;;;8.25;5.05;;;;;;;;;;5024820;28;20540;-58
2023/08/28 06:17:18;;;;;;;8.38;5.45;;;;;;;;;;5034540;28;20097;-59
2023/08/28 06:19:45;;;;;;;9.27;5.15;;;;;;;;;;5038490;28;20585;-59
2023/08/28 06:22:11;;;;;;;9.05;6.20;;;;;;;;;;5033599;28;20499;-58
2023/08/28 06:24:38;;;;;;;9.25;5.43;;;;;;;;;;5038919;28;20045;-60
2023/08/28 06:27:05;;;;;;;6.85;5.22;;;;;;;;;;5041294;28;20415;-61
2023/08/28 06:29:31;;;;;;;5.93;5.38;;;;;;;;;;5042224;28;20061;-59
2023/08/28 06:31:58;;;;;;;7.65;4.90;;;;;;;;;;5030429;28;20054;-60
2023/08/28 06:34:25;;;;;;;11.10;5.90;;;;;;;;;;5029818;28;20469;-61
2023/08/28 06:36:52;;;;;;;9.70;5.32;;;;;;;;;;5033071;28;20139;-60
2023/08/28 06:39:18;;;;;;;7.47;5.88;;;;;;;;;;5040642;28;20058;-57
2023/08/28 06:41:45;;;;;;;11.50;5.07;;;;;;;;;;5034853;28;20060;-60
2023/08/28 06:44:11;;;;;;;5.18;4.68;;;;;;;;;;5039371;28;20480;-58
2023/08/28 06:46:38;;;;;;;8.73;5.10;;;;;;;;;;5040903;28;20057;-60
2023/08/28 06:49:04;;;;;;;6.95;4.63;;;;;;;;;;5041107;28;20088;-59
2023/08/28 06:51:31;;;;;;;8.13;4.72;;;;;;;;;;5040110;28;20153;-59
2023/08/28 06:53:57;;;;;;;5.75;3.58;;;;;;;;;;5042017;28;20148;-58
2023/08/28 06:56:23;;;;;;;7.38;4.30;;;;;;;;;;5038989;28;20148;-60
2023/08/28 06:58:50;;;;;;;9.88;4.05;;;;;;;;;;5039882;28;20450;-59
2023/08/28 07:01:16;;;;;;;4.07;3.67;;;;;;;;;;5035070;28;20050;-56
2023/08/28 07:03:43;;;;;;;6.90;3.60;;;;;;;;;;5041796;28;20116;-59
2023/08/28 07:06:09;;;;;;;4.35;3.70;;;;;;;;;;5038974;28;20058;-59
2023/08/28 07:08:36;;;;;;;4.88;3.80;;;;;;;;;;5033234;28;20065;-58
2023/08/28 07:11:02;;;;;;;4.78;3.97;;;;;;;;;;5031561;28;20115;-59
2023/08/28 07:13:29;;;;;;;4.53;3.83;;;;;;;;;;5044428;28;20115;-58
2023/08/28 07:15:55;;;;;;;6.95;3.88;;;;;;;;;;5045524;28;20058;-57
2023/08/28 07:18:22;;;;;;;7.55;4.10;;;;;;;;;;5031300;28;20144;-59
2023/08/28 07:20:48;;;;;;;9.02;4.30;;;;;;;;;;5037804;28;20052;-58
2023/08/28 07:23:15;;;;;;;4.45;3.10;;;;;;;;;;5062337;28;20448;-59
2023/08/28 07:25:41;;;;;;;3.35;3.05;;;;;;;;;;5057711;28;20052;-58
2023/08/28 07:28:08;;;;;;;4.32;2.72;;;;;;;;;;5038806;28;20061;-59
2023/08/28 07:30:36;;;;;;;5.15;3.63;;;;;;;;;;5035093;28;20053;-59
2023/08/28 07:33:02;;;;;;;4.72;3.40;;;;;;;;;;5044071;28;20482;-59
2023/08/28 07:35:34;;;;;;;8.63;3.60;;;;;;;;;;5045527;28;20146;-57
2023/08/28 07:38:04;;;;;;;6.95;3.63;;;;;;;;;;5043675;28;20050;-57
2023/08/28 07:40:31;;;;;;;5.55;3.35;;;;;;;;;;5055750;28;20657;-59
2023/08/28 07:43:01;;;;;;;5.90;2.80;;;;;;;;;;5050970;28;20081;-58
2023/08/28 07:45:29;;;;;;;6.47;2.40;;;;;;;;;;5026441;28;20058;-59
2023/08/28 07:47:56;;;;;;;4.70;1.88;;;;;;;;;;5042787;28;20134;-57
2023/08/28 07:50:22;;;;;;;3.95;2.20;;;;;;;;;;5039143;28;20053;-58
2023/08/28 07:52:49;;;;;;;2.35;2.05;;;;;;;;;;5040455;28;20519;-58
2023/08/28 07:55:15;;;;;;;2.47;1.77;;;;;;;;;;5043292;28;20111;-58
2023/08/28 07:57:42;;;;;;;5.03;3.33;;;;;;;;;;5044683;28;20511;-59
2023/08/28 08:00:13;;;;;;;5.25;2.28;;;;;;;;;;5042680;28;20500;-59
2023/08/28 08:02:40;;;;;;;4.35;3.03;;;;;;;;;;5042347;28;20057;-59
2023/08/28 08:05:10;;;;;;;5.47;2.53;;;;;;;;;;5030563;28;20104;-59
2023/08/28 08:07:39;;;;;;;2.50;1.85;;;;;;;;;;5042717;28;20399;-58
2023/08/28 08:10:06;;;;;;;6.43;2.15;;;;;;;;;;5043730;28;20100;-57
2023/08/28 08:12:33;;;;;;;2.10;1.48;;;;;;;;;;5029189;28;20165;-59
2023/08/28 08:15:00;;;;;;;4.38;1.88;;;;;;;;;;5028892;28;20096;-58
2023/08/28 08:17:26;;;;;;;3.47;1.40;;;;;;;;;;5033720;28;20045;-57
2023/08/28 08:19:53;;;;;;;1.38;1.27;;;;;;;;;;5043803;28;20053;-57
2023/08/28 08:22:19;;;;;;;2.40;1.40;;;;;;;;;;5041748;28;20551;-57
2023/08/28 08:24:46;;;;;;;6.05;1.70;;;;;;;;;;5032780;28;20049;-58
2023/08/28 08:27:12;;;;;;;2.85;1.45;;;;;;;;;;5030704;28;20053;-57
2023/08/28 08:29:39;;;;;;;5.50;1.35;;;;;;;;;;5043163;28;20571;-59
2023/08/28 08:32:05;;;;;;;1.60;1.13;;;;;;;;;;5041304;28;20053;-56
2023/08/28 08:34:34;;;;;;;2.17;1.05;;;;;;;;;;5030457;28;20085;-57
2023/08/28 08:37:01;;;;;;;2.10;0.98;;;;;;;;;;5036297;28;20117;-58
2023/08/28 08:39:27;;;;;;;4.78;0.80;;;;;;;;;;5039058;28;20049;-58
2023/08/28 08:41:54;;;;;;;1.80;0.80;;;;;;;;;;5035211;28;20050;-56
2023/08/28 08:44:20;;;;;;;1.30;0.90;;;;;;;;;;5023612;28;20058;-59
2023/08/28 08:46:48;;;;;;;1.17;0.98;;;;;;;;;;5033007;28;20055;-58
2023/08/28 08:49:17;;;;;;;3.80;1.00;;;;;;;;;;5042532;28;20656;-58
2023/08/28 08:51:45;;;;;;;4.55;1.58;;;;;;;;;;5042503;28;20053;-56
2023/08/28 08:54:15;;;;;;;3.83;1.27;;;;;;;;;;5039020;28;20136;-58
2023/08/28 08:56:41;;;;;;;2.58;1.15;;;;;;;;;;5042096;28;20075;-59
2023/08/28 08:59:08;;;;;;;2.15;1.13;;;;;;;;;;5042925;28;20059;-59
2023/08/28 09:01:36;;;;;;;5.78;1.20;;;;;;;;;;5044185;28;20050;-57
2023/08/28 09:04:04;;;;;;;4.32;1.23;;;;;;;;;;5043483;28;20526;-57
2023/08/28 09:06:33;;;;;;;1.33;1.23;;;;;;;;;;5043562;28;20080;-58
2023/08/28 09:09:00;;;;;;;1.17;1.08;;;;;;;;;;5041963;28;20069;-58
2023/08/28 09:11:27;;;;;;;2.85;0.90;;;;;;;;;;5038818;28;20061;-58
2023/08/28 09:13:54;;;;;;;3.35;1.10;;;;;;;;;;5046365;28;20053;-59
2023/08/28 09:16:20;;;;;;;3.92;1.20;;;;;;;;;;5049929;28;20055;-58
2023/08/28 09:18:47;;;;;;;4.30;1.40;;;;;;;;;;5036210;28;20653;-58
2023/08/28 09:21:13;;;;;;;1.00;0.98;;;;;;;;;;5039334;28;20058;-59
2023/08/28 09:23:44;;;;;;;1.25;1.05;;;;;;;;;;5041358;28;20550;-59
2023/08/28 09:26:20;;;;;;;1.98;1.10;;;;;;;;;;5041436;28;20516;-58
2023/08/28 09:29:00;;;;;;;1.08;0.88;;;;;;;;;;5034946;28;20520;-60
2023/08/28 09:31:28;;;;;;;1.27;0.80;;;;;;;;;;5024913;28;20053;-59
2023/08/28 09:33:55;;;;;;;3.13;1.13;;;;;;;;;;5030267;28;20239;-60
2023/08/28 09:36:38;;;;;;;1.67;1.13;;;;;;;;;;5058640;28;20080;-59
2023/08/28 09:39:09;;;;;;;5.60;1.25;;;;;;;;;;5041178;28;20061;-57
2023/08/28 09:41:36;;;;;;;3.08;1.10;;;;;;;;;;5036297;28;20081;-59
2023/08/28 09:44:03;;;;;;;1.45;1.05;;;;;;;;;;5039896;28;20505;-60
2023/08/28 09:46:30;;;;;;;1.40;0.88;;;;;;;;;;5034084;28;20054;-59
2023/08/28 09:48:57;;;;;;;2.83;0.90;;;;;;;;;;5024787;28;20308;-60
2023/08/28 09:51:36;;;;;;;3.50;0.90;;;;;;;;;;5039212;28;20637;-60
2023/08/28 09:54:04;;;;;;;2.47;1.10;;;;;;;;;;5035705;28;20064;-60
2023/08/28 09:56:31;;;;;;;1.58;1.10;;;;;;;;;;5042262;28;20049;-60
2023/08/28 09:58:57;;;;;;;2.05;0.90;;;;;;;;;;5039450;28;20064;-60
2023/08/28 10:01:27;;;;;;;3.55;0.90;;;;;;;;;;5042696;28;20121;-61
2023/08/28 10:03:54;;;;;;;6.03;0.90;;;;;;;;;;5041851;28;20081;-59
2023/08/28 10:06:21;;;;;;;9.20;1.30;;;;;;;;;;5036119;28;20444;-59
2023/08/28 10:08:49;;;;;;;1.63;0.80;;;;;;;;;;5051201;28;20060;-60
2023/08/28 10:11:15;;;;;;;0.75;0.55;;;;;;;;;;5048939;28;20724;-59
2023/08/28 10:13:42;;;;;;;3.08;0.80;;;;;;;;;;5036007;28;20053;-60
2023/08/28 10:16:13;;;;;;;2.83;0.77;;;;;;;;;;5041792;28;20061;-60
2023/08/28 10:18:43;;;;;;;4.53;1.00;;;;;;;;;;5035387;28;20141;-58
2023/08/28 10:21:09;;;;;;;3.10;0.82;;;;;;;;;;5037774;28;20486;-59
2023/08/28 10:23:37;;;;;;;1.40;0.70;;;;;;;;;;5042473;28;20053;-59
2023/08/28 10:26:03;;;;;;;3.58;1.13;;;;;;;;;;5042205;28;20160;-59
2023/08/28 10:28:32;;;;;;;2.72;0.80;;;;;;;;;;5046425;28;20064;-60
2023/08/28 10:30:59;;;;;;;1.58;0.63;;;;;;;;;;5040397;28;20053;-60
2023/08/28 10:33:26;;;;;;;2.33;0.70;;;;;;;;;;5040680;28;20512;-59
2023/08/28 10:35:54;;;;;;;1.83;0.90;;;;;;;;;;5049400;28;20060;-59
2023/08/28 10:38:21;;;;;;;1.00;0.70;;;;;;;;;;5029380;28;20065;-59
2023/08/28 10:40:51;;;;;;;1.65;1.15;;;;;;;;;;5035670;28;20477;-59
2023/08/28 10:43:21;;;;;;;1.58;1.10;;;;;;;;;;5036087;28;20097;-59
2023/08/28 10:45:49;;;;;;;0.88;0.88;;;;;;;;;;5053778;28;20059;-60
2023/08/28 10:48:16;;;;;;;4.57;1.27;;;;;;;;;;5032409;28;20566;-59
2023/08/28 10:50:43;;;;;;;1.20;1.10;;;;;;;;;;5026243;28;20050;-58
2023/08/28 10:53:13;;;;;;;1.73;1.00;;;;;;;;;;5023357;28;20061;-58
2023/08/28 10:55:49;;;;;;;2.65;1.38;;;;;;;;;;5034155;28;20128;-59
2023/08/28 10:58:16;;;;;;;4.28;1.48;;;;;;;;;;5040298;28;20123;-58
2023/08/28 11:00:42;;;;;;;1.95;0.98;;;;;;;;;;5047656;28;20099;-57
2023/08/28 11:03:10;;;;;;;0.90;0.75;;;;;;;;;;5028797;28;20056;-59
2023/08/28 11:05:38;;;;;;;1.15;0.80;;;;;;;;;;5040578;28;20505;-59
2023/08/28 11:08:06;;;;;;;1.92;0.95;;;;;;;;;;5038010;28;20049;-56
2023/08/28 11:10:33;;;;;;;2.40;1.08;;;;;;;;;;5043032;28;20172;-57
2023/08/28 11:13:08;;;;;;;2.00;0.90;;;;;;;;;;5047791;28;20057;-57
2023/08/28 11:15:38;;;;;;;1.03;0.70;;;;;;;;;;5041537;28;20054;-57
2023/08/28 11:18:26;;;;;;;2.97;0.77;;;;;;;;;;5035354;28;20045;-57
2023/08/28 11:21:06;;;;;;;0.77;0.47;;;;;;;;;;5052471;28;20176;-56
2023/08/28 11:23:38;;;;;;;0.80;0.70;;;;;;;;;;5028461;28;20050;-57
2023/08/28 11:26:20;;;;;;;2.47;0.73;;;;;;;;;;5037624;28;20478;-59
2023/08/28 11:28:48;;;;;;;1.25;0.60;;;;;;;;;;5046939;28;20133;-59
2023/08/28 11:31:15;;;;;;;1.85;0.68;;;;;;;;;;5041019;28;20149;-57
2023/08/28 11:33:42;;;;;;;2.83;0.60;;;;;;;;;;5046630;28;20065;-57
2023/08/28 11:36:09;;;;;;;3.40;0.90;;;;;;;;;;5045673;28;20595;-59
2023/08/28 11:38:38;;;;;;;1.88;0.93;;;;;;;;;;5052606;28;20057;-58
2023/08/28 11:41:07;;;;;;;1.90;0.98;;;;;;;;;;5055146;28;20060;-60
2023/08/28 11:43:35;;;;;;;1.25;0.80;;;;;;;;;;5041951;28;20062;-58
2023/08/28 11:46:03;;;;;;;4.30;1.20;;;;;;;;;;5039541;28;20053;-58
2023/08/28 11:48:33;;;;;;;1.48;0.70;;;;;;;;;;5036060;28;20053;-59
2023/08/28 11:51:00;;;;;;;1.42;0.85;;;;;;;;;;5035848;28;20057;-59
2023/08/28 11:53:28;;;;;;;1.83;0.90;;;;;;;;;;5048017;28;20055;-57
2023/08/28 11:55:54;;;;;;;2.50;0.80;;;;;;;;;;5044687;28;20053;-57
2023/08/28 11:58:22;;;;;;;1.77;0.65;;;;;;;;;;5043653;28;20050;-59
2023/08/28 12:00:48;;;;;;;2.97;0.80;;;;;;;;;;5043739;28;20057;-58
2023/08/28 12:03:18;;;;;;;2.30;0.70;;;;;;;;;;5034975;28;20190;-59
2023/08/28 12:05:45;;;;;;;2.30;0.77;;;;;;;;;;5024801;28;20050;-61
2023/08/28 12:08:12;;;;;;;2.15;0.95;;;;;;;;;;5042874;28;20605;-60
2023/08/28 12:10:39;;;;;;;7.10;1.13;;;;;;;;;;5042443;28;20141;-60
2023/08/28 12:13:05;;;;;;;2.10;0.90;;;;;;;;;;5042151;28;20057;-59
2023/08/28 12:15:32;;;;;;;1.80;0.95;;;;;;;;;;5044129;28;20064;-58
2023/08/28 12:18:03;;;;;;;0.77;0.77;;;;;;;;;;5044811;28;20060;-60
2023/08/28 12:20:31;;;;;;;2.38;1.25;;;;;;;;;;5044198;28;20053;-60
2023/08/28 12:22:58;;;;;;;3.58;1.13;;;;;;;;;;5042501;28;20053;-59
2023/08/28 12:25:29;;;;;;;4.53;1.27;;;;;;;;;;5038007;28;20049;-61
2023/08/28 12:28:06;;;;;;;2.15;0.90;;;;;;;;;;5043907;28;20508;-59
2023/08/28 12:30:33;;;;;;;2.78;0.98;;;;;;;;;;5044532;28;20516;-59
2023/08/28 12:33:01;;;;;;;2.78;1.13;;;;;;;;;;5034211;28;20062;-60
2023/08/28 12:35:28;;;;;;;1.73;1.13;;;;;;;;;;5031760;28;20058;-61
2023/08/28 12:37:55;;;;;;;4.30;1.00;;;;;;;;;;5048579;28;20085;-60
2023/08/28 12:40:21;;;;;;;0.55;0.55;;;;;;;;;;5043861;28;20056;-60
2023/08/28 12:42:54;;;;;;;1.42;0.77;;;;;;;;;;5042616;28;20232;-60
2023/08/28 12:45:20;;;;;;;1.13;0.88;;;;;;;;;;5043167;28;20664;-58
2023/08/28 12:47:50;;;;;;;2.22;0.90;;;;;;;;;;5049134;28;20116;-58
2023/08/28 12:50:17;;;;;;;2.58;0.70;;;;;;;;;;5038884;28;20052;-57
2023/08/28 12:52:49;;;;;;;2.70;0.90;;;;;;;;;;5039479;28;20077;-58
2023/08/28 12:55:16;;;;;;;1.35;0.73;;;;;;;;;;5044036;28;20092;-56
2023/08/28 12:57:42;;;;;;;1.35;0.60;;;;;;;;;;5035009;28;20127;-60
2023/08/28 13:00:09;;;;;;;1.20;0.70;;;;;;;;;;5037400;28;20507;-61
2023/08/28 13:02:35;;;;;;;1.02;0.80;;;;;;;;;;5043252;28;20058;-59
2023/08/28 13:05:02;;;;;;;2.15;0.70;;;;;;;;;;5042572;28;20116;-59
2023/08/28 13:07:29;;;;;;;3.55;0.80;;;;;;;;;;5049621;28;20132;-60
2023/08/28 13:09:55;;;;;;;0.68;0.60;;;;;;;;;;5029450;28;20065;-57
2023/08/28 13:12:21;;;;;;;1.65;0.80;;;;;;;;;;5035372;28;20058;-57
2023/08/28 13:14:48;;;;;;;4.22;0.90;;;;;;;;;;5042894;28;20449;-61
2023/08/28 13:17:14;;;;;;;0.98;0.60;;;;;;;;;;5037317;28;20054;-61
2023/08/28 13:19:41;;;;;;;2.33;0.82;;;;;;;;;;5041199;28;20053;-59
2023/08/28 13:22:07;;;;;;;1.73;0.82;;;;;;;;;;5041698;28;20601;-60
2023/08/28 13:24:33;;;;;;;0.80;0.77;;;;;;;;;;5040677;28;20054;-61
2023/08/28 13:27:10;;;;;;;1.33;0.70;;;;;;;;;;5042285;28;20077;-60
2023/08/28 13:29:37;;;;;;;1.42;0.90;;;;;;;;;;5042219;28;20060;-61
2023/08/28 13:32:03;;;;;;;2.65;1.17;;;;;;;;;;5041685;28;20156;-61
2023/08/28 13:34:31;;;;;;;0.90;0.80;;;;;;;;;;5043733;28;20575;-61
2023/08/28 13:36:59;;;;;;;1.60;0.75;;;;;;;;;;5040199;28;20457;-61
2023/08/28 13:39:26;;;;;;;1.42;0.70;;;;;;;;;;5038451;28;20479;-61
2023/08/28 13:41:53;;;;;;;2.25;0.50;;;;;;;;;;5042814;28;20056;-60
2023/08/28 13:44:19;;;;;;;1.27;0.82;;;;;;;;;;5042807;28;20270;-61
2023/08/28 13:46:46;;;;;;;2.03;0.75;;;;;;;;;;5042805;28;20140;-60
2023/08/28 13:49:12;;;;;;;1.33;0.75;;;;;;;;;;5041236;28;20064;-61
2023/08/28 13:51:38;;;;;;;0.60;0.60;;;;;;;;;;5041459;28;20407;-60
2023/08/28 13:54:05;;;;;;;2.75;0.73;;;;;;;;;;5042443;28;20053;-60
2023/08/28 13:56:31;;;;;;;2.53;0.80;;;;;;;;;;5043513;28;20141;-60
2023/08/28 13:58:58;;;;;;;2.42;0.80;;;;;;;;;;5046600;28;20060;-61
2023/08/28 14:01:24;;;;;;;2.15;0.60;;;;;;;;;;5050446;28;20158;-61
2023/08/28 14:03:51;;;;;;;0.70;0.60;;;;;;;;;;5042164;28;20096;-59
2023/08/28 14:06:18;;;;;;;1.48;0.73;;;;;;;;;;5025697;28;20148;-61
2023/08/28 14:08:44;;;;;;;2.17;0.65;;;;;;;;;;5039420;28;20060;-61
2023/08/28 14:11:11;;;;;;;1.55;0.80;;;;;;;;;;5041959;28;20100;-61
2023/08/28 14:13:37;;;;;;;2.03;0.70;;;;;;;;;;5045051;28;20504;-61
2023/08/28 14:16:04;;;;;;;0.82;0.77;;;;;;;;;;5049393;28;20104;-59
2023/08/28 14:18:31;;;;;;;2.75;0.50;;;;;;;;;;5042562;28;20558;-59
2023/08/28 14:20:58;;;;;;;1.98;0.75;;;;;;;;;;5037082;28;20139;-58
2023/08/28 14:23:25;;;;;;;2.17;0.70;;;;;;;;;;5030044;28;20678;-59
2023/08/28 14:25:51;;;;;;;1.17;0.50;;;;;;;;;;5041354;28;20586;-59
2023/08/28 14:28:18;;;;;;;1.35;0.85;;;;;;;;;;5052891;28;20067;-58
2023/08/28 14:30:48;;;;;;;1.30;0.77;;;;;;;;;;5040377;28;20057;-58
2023/08/28 14:33:17;;;;;;;0.55;0.50;;;;;;;;;;5040038;28;20057;-58
2023/08/28 14:35:44;;;;;;;1.63;0.70;;;;;;;;;;5023065;28;20084;-58
2023/08/28 14:38:13;;;;;;;0.70;0.70;;;;;;;;;;5032672;28;20045;-58
2023/08/28 14:40:40;;;;;;;1.48;0.63;;;;;;;;;;5029139;28;20054;-58
2023/08/28 14:43:13;;;;;;;1.00;0.75;;;;;;;;;;5045486;28;20578;-59
2023/08/28 14:45:40;;;;;;;1.83;0.80;;;;;;;;;;5055034;28;20057;-58